createdAt,value
2023-03-21T00:00:40.048Z,38.28
2023-03-21T00:03:07.839Z,40.38
2023-03-21T00:05:39.562Z,39.72
2023-03-21T00:08:07.027Z,39.83
2023-03-21T00:10:43.409Z,40.42
2023-03-21T00:13:13.371Z,38.28
2023-03-21T00:16:04.724Z,38.95
2023-03-21T00:18:41.811Z,39.30
2023-03-21T00:21:43.919Z,39.58
2023-03-21T00:24:02.825Z,37.25
2023-03-21T00:26:30.398Z,38.80
2023-03-21T00:28:58.355Z,39.83
2023-03-21T00:31:25.945Z,39.33
2023-03-21T00:33:53.212Z,39.55
2023-03-21T00:36:21.625Z,41.00
2023-03-21T00:38:48.947Z,39.88
2023-03-21T00:41:26.285Z,39.90
2023-03-21T00:44:04.112Z,40.03
2023-03-21T00:46:42.789Z,41.03
2023-03-21T00:49:12.791Z,39.93
2023-03-21T00:51:43.712Z,40.95
2023-03-21T00:54:13.035Z,40.00
2023-03-21T00:56:41.559Z,40.08
2023-03-21T00:59:08.954Z,41.17
2023-03-21T01:01:37.330Z,39.67
2023-03-21T01:04:11.145Z,39.53
2023-03-21T01:06:40.486Z,39.28
2023-03-21T01:09:13.267Z,41.13
2023-03-21T01:11:42.168Z,41.22
2023-03-21T01:14:25.207Z,40.90
2023-03-21T01:16:54.572Z,43.35
2023-03-21T01:19:40.712Z,41.08
2023-03-21T01:22:13.871Z,40.80
2023-03-21T01:24:52.491Z,42.58
2023-03-21T01:27:22.934Z,41.35
2023-03-21T01:29:50.380Z,39.58
2023-03-21T01:32:17.777Z,41.47
2023-03-21T01:34:45.493Z,40.25
2023-03-21T01:37:12.900Z,40.42
2023-03-21T01:39:46.501Z,41.08
2023-03-21T01:42:14.272Z,40.90
2023-03-21T01:44:56.806Z,38.92
2023-03-21T01:47:26.168Z,40.63
2023-03-21T01:50:17.256Z,41.40
2023-03-21T01:52:56.864Z,40.92
2023-03-21T01:55:28.617Z,40.88
2023-03-21T01:58:06.862Z,41.17
2023-03-21T02:00:55.366Z,40.05
2023-03-21T02:03:38.630Z,41.80
2023-03-21T02:06:43.966Z,41.03
2023-03-21T02:09:44.601Z,41.33
2023-03-21T02:12:18.736Z,40.55
2023-03-21T02:14:49.641Z,41.55
2023-03-21T02:18:02.417Z,41.30
2023-03-21T02:21:13.293Z,40.80
2023-03-21T02:24:42.687Z,41.20
2023-03-21T02:27:21.988Z,40.60
2023-03-21T02:30:29.397Z,39.90
2023-03-21T02:33:16.062Z,39.78
2023-03-21T02:36:13.564Z,40.38
2023-03-21T02:38:56.166Z,39.97
2023-03-21T02:41:49.555Z,40.65
2023-03-21T02:44:50.422Z,39.40
2023-03-21T02:47:26.881Z,39.83
2023-03-21T02:50:12.420Z,41.08
2023-03-21T02:52:44.403Z,41.05
2023-03-21T02:55:16.575Z,42.85
2023-03-21T02:57:53.909Z,39.55
2023-03-21T03:00:29.662Z,41.53
2023-03-21T03:03:08.832Z,41.80
2023-03-21T03:05:47.158Z,42.10
2023-03-21T03:08:59.783Z,40.30
2023-03-21T03:11:39.239Z,43.58
2023-03-21T03:14:53.126Z,41.78
2023-03-21T03:17:40.335Z,40.90
2023-03-21T03:20:16.162Z,42.88
2023-03-21T03:22:57.572Z,42.72
2023-03-21T03:25:44.215Z,43.10
2023-03-21T03:28:21.383Z,42.35
2023-03-21T03:31:07.572Z,41.95
2023-03-21T03:33:46.584Z,43.60
2023-03-21T03:36:33.567Z,41.40
2023-03-21T03:39:11.348Z,41.60
2023-03-21T03:44:38.760Z,43.92
2023-03-21T03:48:06.185Z,43.22
2023-03-21T03:50:51.111Z,42.58
2023-03-21T03:53:32.756Z,41.47
2023-03-21T03:56:01.551Z,42.53
2023-03-21T03:58:44.629Z,41.67
2023-03-21T04:01:15.444Z,41.80
2023-03-21T04:03:50.439Z,43.42
2023-03-21T04:06:19.940Z,42.22
2023-03-21T04:08:48.950Z,42.83
2023-03-21T04:11:16.551Z,42.83
2023-03-21T04:13:48.566Z,42.72
2023-03-21T04:16:23.323Z,43.88
2023-03-21T04:18:52.463Z,44.63
2023-03-21T04:21:21.628Z,43.33
2023-03-21T04:23:49.192Z,44.42
2023-03-21T04:26:17.513Z,45.90
2023-03-21T04:31:50.011Z,44.65
2023-03-21T04:34:18.160Z,45.20
2023-03-21T04:36:50.906Z,42.75
2023-03-21T04:39:19.584Z,43.45
2023-03-21T04:41:50.029Z,43.03
2023-03-21T04:44:18.542Z,41.00
2023-03-21T04:46:46.912Z,41.53
2023-03-21T04:49:15.569Z,41.40
2023-03-21T04:51:45.410Z,41.22
2023-03-21T04:54:18.664Z,39.08
2023-03-21T04:56:46.199Z,39.42
2023-03-21T04:59:16.668Z,41.08
2023-03-21T05:01:44.952Z,39.85
2023-03-21T05:04:14.256Z,40.17
2023-03-21T05:06:45.180Z,38.15
2023-03-21T05:09:13.255Z,39.70
2023-03-21T05:11:41.648Z,39.00
2023-03-21T05:14:15.401Z,40.88
2023-03-21T05:16:55.477Z,39.65
2023-03-21T05:19:34.799Z,39.55
2023-03-21T05:22:06.339Z,40.78
2023-03-21T05:24:33.948Z,39.95
2023-03-21T05:27:03.600Z,39.08
2023-03-21T05:29:38.423Z,39.63
2023-03-21T05:32:07.163Z,38.05
2023-03-21T05:34:34.439Z,39.38
2023-03-21T05:37:02.374Z,39.72
2023-03-21T05:39:50.891Z,38.50
2023-03-21T05:42:25.164Z,37.47
2023-03-21T05:44:52.946Z,36.58
2023-03-21T05:47:25.652Z,38.00
2023-03-21T05:49:54.713Z,37.53
2023-03-21T05:52:23.520Z,32.85
2023-03-21T05:54:51.258Z,36.42
2023-03-21T05:57:22.667Z,33.50
2023-03-21T05:59:57.887Z,34.28
2023-03-21T06:02:25.309Z,34.40
2023-03-21T06:04:53.648Z,34.35
2023-03-21T06:07:22.096Z,34.05
2023-03-21T06:09:50.513Z,33.67
2023-03-21T06:12:18.127Z,32.53
2023-03-21T06:17:45.411Z,31.80
2023-03-21T06:20:13.425Z,32.83
2023-03-21T06:22:46.391Z,32.08
2023-03-21T06:25:13.939Z,32.83
2023-03-21T06:27:41.371Z,33.55
2023-03-21T06:30:09.400Z,33.33
2023-03-21T06:32:45.704Z,31.00
2023-03-21T06:35:17.093Z,32.50
2023-03-21T06:37:46.152Z,33.10
2023-03-21T06:40:14.043Z,33.25
2023-03-21T06:42:41.712Z,31.10
2023-03-21T06:45:11.613Z,32.35
2023-03-21T06:47:39.017Z,31.58
2023-03-21T06:50:13.171Z,31.95
2023-03-21T06:52:42.685Z,31.70
2023-03-21T06:55:13.185Z,31.98
2023-03-21T06:57:40.751Z,31.13
2023-03-21T07:00:10.123Z,32.17
2023-03-21T07:02:42.525Z,31.63
2023-03-21T07:05:15.533Z,30.92
2023-03-21T07:07:43.997Z,31.63
2023-03-21T07:10:11.811Z,30.92
2023-03-21T07:12:50.466Z,31.92
2023-03-21T07:15:23.953Z,31.80
2023-03-21T07:17:52.436Z,30.25
2023-03-21T07:20:19.829Z,31.00
2023-03-21T07:22:47.194Z,29.50
2023-03-21T07:25:17.336Z,29.83
2023-03-21T07:27:44.696Z,29.60
2023-03-21T07:30:13.393Z,30.55
2023-03-21T07:32:40.819Z,28.13
2023-03-21T07:35:11.918Z,29.58
2023-03-21T07:37:40.856Z,28.63
2023-03-21T07:40:10.334Z,29.65
2023-03-21T07:42:41.717Z,29.42
2023-03-21T07:45:12.841Z,28.50
2023-03-21T07:47:40.324Z,30.58
2023-03-21T07:50:08.333Z,27.73
2023-03-21T07:52:35.809Z,27.70
2023-03-21T07:55:03.626Z,27.85
2023-03-21T07:57:30.986Z,27.75
2023-03-21T07:59:58.514Z,27.95
2023-03-21T08:02:26.250Z,28.48
2023-03-21T08:04:53.674Z,31.58
2023-03-21T08:07:21.046Z,32.38
2023-03-21T08:09:48.440Z,33.13
2023-03-21T08:12:16.887Z,31.83
2023-03-21T08:14:44.481Z,33.53
2023-03-21T08:17:11.909Z,34.38
2023-03-21T08:19:39.260Z,32.92
2023-03-21T08:22:06.770Z,32.03
2023-03-21T08:24:34.326Z,31.30
2023-03-21T08:27:02.020Z,31.58
2023-03-21T08:29:29.512Z,30.27
2023-03-21T08:31:58.064Z,30.48
2023-03-21T08:34:26.423Z,29.70
2023-03-21T08:36:54.542Z,32.28
2023-03-21T08:39:22.551Z,32.15
2023-03-21T08:41:49.939Z,32.88
2023-03-21T08:44:17.398Z,31.40
2023-03-21T08:46:44.732Z,33.35
2023-03-21T08:49:12.703Z,33.53
2023-03-21T08:51:41.236Z,32.97
2023-03-21T08:54:17.514Z,33.45
2023-03-21T08:56:44.821Z,33.15
2023-03-21T08:59:12.348Z,32.42
2023-03-21T09:01:39.810Z,32.63
2023-03-21T09:04:10.842Z,33.70
2023-03-21T09:06:40.999Z,33.30
2023-03-21T09:09:09.341Z,32.22
2023-03-21T09:11:36.741Z,31.80
2023-03-21T09:14:04.360Z,32.22
2023-03-21T09:16:32.599Z,32.88
2023-03-21T09:19:00.069Z,32.03
2023-03-21T09:21:28.316Z,33.95
2023-03-21T09:23:58.829Z,31.17
2023-03-21T09:26:27.787Z,32.10
2023-03-21T09:28:56.271Z,33.05
2023-03-21T09:31:24.970Z,32.53
2023-03-21T09:33:53.319Z,30.33
2023-03-21T09:36:25.017Z,32.60
2023-03-21T09:38:53.140Z,32.17
2023-03-21T09:41:26.329Z,33.72
2023-03-21T09:44:24.766Z,33.88
2023-03-21T09:47:22.290Z,33.60
2023-03-21T09:50:07.573Z,33.60
2023-03-21T09:52:50.691Z,33.10
2023-03-21T09:55:22.616Z,32.03
2023-03-21T09:58:16.684Z,32.22
2023-03-21T10:00:49.091Z,33.10
2023-03-21T10:03:26.252Z,32.47
2023-03-21T10:06:01.594Z,31.80
2023-03-21T10:08:36.616Z,31.65
2023-03-21T10:11:16.145Z,31.23
2023-03-21T10:14:07.678Z,31.35
2023-03-21T10:16:40.842Z,29.77
2023-03-21T10:19:13.290Z,28.90
2023-03-21T10:22:03.355Z,28.73
2023-03-21T10:24:34.639Z,26.55
2023-03-21T10:27:03.539Z,27.58
2023-03-21T10:29:38.708Z,28.10
2023-03-21T10:32:09.876Z,26.15
2023-03-21T10:37:25.663Z,23.40
2023-03-21T10:39:55.337Z,25.38
2023-03-21T10:42:25.715Z,24.55
2023-03-21T10:44:56.623Z,24.52
2023-03-21T10:47:32.598Z,25.27
2023-03-21T10:50:10.415Z,24.70
2023-03-21T10:52:51.453Z,26.17
2023-03-21T10:55:22.046Z,23.55
2023-03-21T10:57:55.120Z,21.55
2023-03-21T11:00:27.534Z,20.67
2023-03-21T11:02:55.617Z,21.50
2023-03-21T11:05:35.002Z,24.13
2023-03-21T11:08:18.189Z,25.98
2023-03-21T11:10:59.690Z,30.10
2023-03-21T11:13:36.642Z,25.48
2023-03-21T11:16:06.152Z,23.02
2023-03-21T11:18:33.574Z,23.80
2023-03-21T11:21:06.668Z,24.95
2023-03-21T11:23:39.865Z,19.10
2023-03-21T11:26:18.492Z,21.40
2023-03-21T11:28:46.456Z,21.85
2023-03-21T11:31:13.820Z,20.58
2023-03-21T11:33:59.992Z,21.70
2023-03-21T11:36:33.894Z,22.00
2023-03-21T11:39:32.379Z,20.98
2023-03-21T11:42:00.117Z,19.40
2023-03-21T11:44:33.897Z,16.55
2023-03-21T11:47:01.942Z,15.57
2023-03-21T11:49:29.372Z,13.93
2023-03-21T11:52:14.091Z,12.85
2023-03-21T11:55:00.724Z,13.63
2023-03-21T11:57:50.034Z,13.82
2023-03-21T12:00:29.301Z,14.30
2023-03-21T12:03:41.425Z,14.50
2023-03-21T12:06:56.155Z,13.50
2023-03-21T12:09:37.407Z,16.10
2023-03-21T12:12:38.954Z,14.23
2023-03-21T12:15:12.682Z,15.25
2023-03-21T12:17:54.447Z,15.30
2023-03-21T12:20:30.754Z,15.10
2023-03-21T12:23:16.619Z,15.63
2023-03-21T12:26:02.710Z,15.18
2023-03-21T12:28:56.877Z,14.07
2023-03-21T12:31:46.256Z,13.77
2023-03-21T12:34:24.675Z,17.00
2023-03-21T12:37:17.573Z,16.08
2023-03-21T12:39:48.605Z,18.80
2023-03-21T12:42:50.984Z,18.63
2023-03-21T12:45:20.882Z,24.05
2023-03-21T12:47:53.352Z,26.67
2023-03-21T12:50:37.457Z,25.90
2023-03-21T12:53:24.090Z,27.05
2023-03-21T12:55:52.250Z,26.60
2023-03-21T12:58:25.989Z,25.40
2023-03-21T13:00:56.234Z,26.15
2023-03-21T13:03:39.889Z,26.38
2023-03-21T13:06:10.927Z,26.33
2023-03-21T13:08:49.314Z,26.25
2023-03-21T13:11:21.758Z,25.33
2023-03-21T13:14:01.209Z,23.48
2023-03-21T13:16:34.923Z,24.75
2023-03-21T13:19:29.309Z,23.80
2023-03-21T13:22:18.996Z,25.20
2023-03-21T13:24:48.589Z,24.20
2023-03-21T13:27:21.368Z,25.08
2023-03-21T13:29:54.510Z,24.33
2023-03-21T13:32:27.871Z,24.00
2023-03-21T13:34:58.080Z,23.83
2023-03-21T13:37:31.084Z,24.63
2023-03-21T13:40:12.902Z,22.70
2023-03-21T13:42:50.194Z,24.02
2023-03-21T13:45:44.871Z,24.45
2023-03-21T13:48:28.540Z,24.08
2023-03-21T13:51:06.572Z,21.15
2023-03-21T13:53:43.753Z,22.45
2023-03-21T13:56:16.987Z,22.20
2023-03-21T13:58:44.386Z,23.83
2023-03-21T14:01:29.778Z,23.85
2023-03-21T14:04:06.494Z,23.67
2023-03-21T14:06:55.046Z,25.33
2023-03-21T14:09:31.137Z,24.77
2023-03-21T14:12:07.121Z,25.52
2023-03-21T14:14:41.939Z,25.20
2023-03-21T14:17:22.080Z,24.67
2023-03-21T14:20:16.413Z,24.20
2023-03-21T14:22:47.867Z,23.83
2023-03-21T14:25:17.586Z,23.08
2023-03-21T14:27:53.677Z,24.83
2023-03-21T14:30:34.127Z,25.02
2023-03-21T14:33:23.832Z,24.02
2023-03-21T14:35:51.378Z,23.92
2023-03-21T14:38:27.681Z,23.75
2023-03-21T14:40:58.332Z,23.95
2023-03-21T14:43:26.820Z,24.02
2023-03-21T14:45:57.033Z,23.88
2023-03-21T14:48:35.253Z,23.67
2023-03-21T14:51:12.320Z,23.13
2023-03-21T14:53:42.498Z,24.00
2023-03-21T14:56:17.786Z,22.92
2023-03-21T14:58:47.492Z,22.35
2023-03-21T15:01:31.213Z,22.00
2023-03-21T15:04:01.270Z,23.17
2023-03-21T15:06:28.569Z,21.90
2023-03-21T15:08:57.357Z,22.90
2023-03-21T15:11:42.286Z,22.35
2023-03-21T15:14:14.627Z,21.65
2023-03-21T15:16:42.287Z,21.10
2023-03-21T15:19:16.780Z,22.25
2023-03-21T15:21:51.085Z,22.50
2023-03-21T15:24:26.382Z,21.48
2023-03-21T15:27:02.462Z,21.92
2023-03-21T15:29:30.275Z,21.45
2023-03-21T15:31:59.150Z,21.38
2023-03-21T15:34:30.744Z,20.67
2023-03-21T15:37:05.166Z,20.25
2023-03-21T15:39:36.120Z,20.00
2023-03-21T15:42:05.864Z,19.17
2023-03-21T15:44:35.171Z,20.58
2023-03-21T15:47:02.617Z,21.75
2023-03-21T15:49:33.906Z,21.35
2023-03-21T15:52:11.287Z,22.40
2023-03-21T15:54:44.777Z,21.15
2023-03-21T15:57:34.218Z,20.27
2023-03-21T16:00:15.130Z,20.45
2023-03-21T16:02:43.040Z,20.33
2023-03-21T16:05:28.492Z,21.60
2023-03-21T16:08:03.731Z,21.10
2023-03-21T16:10:34.152Z,21.13
2023-03-21T16:13:01.469Z,22.20
2023-03-21T16:15:29.313Z,21.33
2023-03-21T16:17:59.123Z,20.65
2023-03-21T16:20:32.682Z,20.02
2023-03-21T16:23:01.263Z,19.17
2023-03-21T16:25:31.076Z,20.08
2023-03-21T16:27:58.837Z,19.33
2023-03-21T16:30:26.266Z,20.27
2023-03-21T16:32:53.596Z,20.17
2023-03-21T16:35:23.436Z,21.10
2023-03-21T16:37:51.016Z,22.27
2023-03-21T16:40:28.120Z,20.90
2023-03-21T16:42:55.921Z,21.95
2023-03-21T16:45:23.615Z,21.48
2023-03-21T16:47:51.753Z,21.85
2023-03-21T16:50:43.021Z,21.15
2023-03-21T16:53:10.529Z,21.98
2023-03-21T16:55:38.917Z,21.55
2023-03-21T16:58:06.407Z,20.90
2023-03-21T17:00:33.888Z,21.75
2023-03-21T17:03:03.041Z,21.95
2023-03-21T17:05:30.837Z,22.17
2023-03-21T17:08:02.015Z,22.33
2023-03-21T17:10:31.078Z,21.77
2023-03-21T17:12:58.858Z,20.90
2023-03-21T17:15:26.214Z,21.05
2023-03-21T17:17:55.624Z,21.65
2023-03-21T17:20:28.721Z,21.50
2023-03-21T17:22:55.993Z,21.05
2023-03-21T17:25:23.450Z,21.05
2023-03-21T17:27:53.033Z,20.75
2023-03-21T17:30:30.917Z,20.23
2023-03-21T17:32:58.867Z,19.88
2023-03-21T17:35:27.534Z,21.05
2023-03-21T17:37:58.409Z,21.42
2023-03-21T17:40:28.878Z,22.50
2023-03-21T17:42:57.313Z,21.75
2023-03-21T17:45:25.432Z,21.73
2023-03-21T17:47:54.954Z,21.27
2023-03-21T17:50:27.805Z,22.48
2023-03-21T17:52:57.808Z,23.15
2023-03-21T17:55:25.232Z,23.50
2023-03-21T17:57:52.730Z,22.38
2023-03-21T18:00:23.818Z,24.45
2023-03-21T18:02:51.945Z,24.50
2023-03-21T18:05:21.571Z,24.27
2023-03-21T18:08:10.945Z,24.48
2023-03-21T18:10:39.922Z,23.95
2023-03-21T18:13:07.580Z,25.05
2023-03-21T18:15:37.575Z,25.02
2023-03-21T18:18:05.886Z,26.13
2023-03-21T18:23:21.400Z,28.45
2023-03-21T18:25:49.140Z,29.60
2023-03-21T18:28:20.517Z,29.48
2023-03-21T18:31:07.395Z,28.50
2023-03-21T18:33:37.871Z,29.77
2023-03-21T18:36:07.775Z,29.67
2023-03-21T18:38:36.585Z,31.00
2023-03-21T18:41:04.770Z,30.80
2023-03-21T18:44:04.642Z,30.08
2023-03-21T18:46:19.734Z,30.55
2023-03-21T18:48:47.981Z,30.27
2023-03-21T18:51:17.623Z,29.05
2023-03-21T18:53:45.684Z,30.48
2023-03-21T18:56:40.834Z,30.17
2023-03-21T18:59:01.171Z,30.83
2023-03-21T19:01:28.645Z,30.10
2023-03-21T19:04:20.025Z,29.63
2023-03-21T19:06:48.089Z,29.20
2023-03-21T19:09:16.017Z,29.88
2023-03-21T19:11:45.650Z,29.50
2023-03-21T19:14:15.541Z,30.27
2023-03-21T19:19:31.231Z,31.10
2023-03-21T19:21:58.762Z,29.05
2023-03-21T19:24:28.593Z,29.17
2023-03-21T19:26:56.429Z,30.00
2023-03-21T19:29:23.730Z,30.42
2023-03-21T19:31:51.686Z,31.52
2023-03-21T19:34:19.529Z,33.17
2023-03-21T19:36:51.604Z,32.63
2023-03-21T19:39:22.609Z,32.05
2023-03-21T19:41:51.726Z,30.00
2023-03-21T19:44:21.899Z,31.65
2023-03-21T19:46:51.069Z,81.05
2023-03-21T19:49:22.246Z,33.83
2023-03-21T19:51:49.901Z,32.60
2023-03-21T19:54:18.097Z,30.67
2023-03-21T19:56:48.159Z,30.23
2023-03-21T19:59:16.199Z,31.33
2023-03-21T20:01:48.816Z,31.58
2023-03-21T20:04:17.905Z,30.23
2023-03-21T20:06:45.699Z,30.02
2023-03-21T20:09:49.689Z,31.10
2023-03-21T20:12:01.432Z,29.80
2023-03-21T20:14:28.741Z,31.17
2023-03-21T20:16:57.224Z,28.98
2023-03-21T20:19:25.045Z,33.88
2023-03-21T20:21:58.868Z,35.15
2023-03-21T20:24:28.193Z,30.08
2023-03-21T20:26:56.267Z,28.30
2023-03-21T20:32:11.225Z,27.65
2023-03-21T20:34:39.337Z,31.48
2023-03-21T20:37:07.237Z,28.40
2023-03-21T20:39:34.743Z,28.45
2023-03-21T20:42:02.718Z,28.15
2023-03-21T20:47:18.713Z,27.90
2023-03-21T20:49:46.232Z,27.25
2023-03-21T20:52:54.397Z,29.15
2023-03-21T20:55:03.174Z,29.10
2023-03-21T20:57:30.628Z,27.25
2023-03-21T20:59:57.908Z,42.50
2023-03-21T21:02:25.400Z,27.63
2023-03-21T21:05:23.795Z,30.40
2023-03-21T21:07:42.851Z,30.65
2023-03-21T21:10:14.124Z,29.77
2023-03-21T21:12:45.081Z,29.73
2023-03-21T21:15:16.251Z,27.75
2023-03-21T21:18:04.840Z,28.00
2023-03-21T21:20:33.681Z,29.20
2023-03-21T21:23:01.267Z,28.58
2023-03-21T21:25:31.795Z,28.90
2023-03-21T21:27:59.226Z,28.52
2023-03-21T21:30:26.566Z,48.33
2023-03-21T21:32:54.008Z,29.20
2023-03-21T21:35:22.398Z,52.20
2023-03-21T21:37:51.174Z,48.08
2023-03-21T21:40:20.617Z,32.03
2023-03-21T21:42:48.209Z,29.92
2023-03-21T21:45:15.965Z,30.25
2023-03-21T21:47:44.787Z,30.88
2023-03-21T21:50:12.955Z,30.23
2023-03-21T21:52:43.622Z,29.83
2023-03-21T21:55:13.172Z,28.92
2023-03-21T21:57:40.913Z,29.00
2023-03-21T22:00:13.621Z,31.33
2023-03-21T22:02:41.930Z,29.85
2023-03-21T22:05:10.549Z,30.05
2023-03-21T22:07:39.065Z,28.90
2023-03-21T22:10:07.152Z,29.20
2023-03-21T22:12:34.872Z,29.40
2023-03-21T22:15:04.069Z,30.55
2023-03-21T22:17:31.780Z,29.08
2023-03-21T22:20:06.095Z,32.70
2023-03-21T22:22:34.904Z,32.65
2023-03-21T22:25:04.267Z,29.33
2023-03-21T22:27:31.921Z,29.88
2023-03-21T22:30:04.998Z,29.02
2023-03-21T22:32:37.989Z,29.40
2023-03-21T22:35:07.074Z,30.27
2023-03-21T22:37:36.435Z,30.17
2023-03-21T22:40:06.909Z,30.65
2023-03-21T22:42:35.221Z,30.33
2023-03-21T22:45:05.848Z,28.25
2023-03-21T22:47:33.756Z,28.73
2023-03-21T22:50:01.344Z,28.48
2023-03-21T22:52:28.773Z,29.42
2023-03-21T22:54:56.195Z,27.42
2023-03-21T22:57:23.681Z,27.60
2023-03-21T22:59:51.106Z,26.50
2023-03-21T23:02:19.702Z,27.17
2023-03-21T23:04:47.094Z,27.33
2023-03-21T23:07:14.660Z,28.00
2023-03-21T23:09:42.002Z,27.27
2023-03-21T23:12:09.525Z,27.58
2023-03-21T23:14:37.000Z,27.88
2023-03-21T23:17:04.453Z,27.88
2023-03-21T23:19:32.467Z,27.45
2023-03-21T23:21:59.801Z,27.40
2023-03-21T23:24:27.388Z,27.90
2023-03-21T23:26:54.963Z,27.83
2023-03-21T23:29:22.405Z,27.17
2023-03-21T23:31:49.827Z,27.90
2023-03-21T23:34:17.173Z,27.35
2023-03-21T23:36:44.587Z,27.58
2023-03-21T23:39:11.926Z,27.00
2023-03-21T23:41:39.278Z,26.35
2023-03-21T23:44:06.685Z,27.17
2023-03-21T23:46:34.208Z,25.92
2023-03-21T23:49:01.669Z,27.08
2023-03-21T23:51:29.114Z,26.88
2023-03-21T23:53:56.654Z,27.33
2023-03-21T23:56:26.590Z,25.63
2023-03-21T23:58:54.172Z,26.38
